sensor_id;sensor_type;location;lat;lon;timestamp;P1;durP1;ratioP1;P2;durP2;ratioP2
6177;SDS011;3122;48.208;11.174;2023-07-31T00:03:12;4.50;;;2.93;;
6177;SDS011;3122;48.208;11.174;2023-07-31T00:08:13;6.57;;;3.73;;
6177;SDS011;3122;48.208;11.174;2023-07-31T00:13:13;4.10;;;3.47;;
6177;SDS011;3122;48.208;11.174;2023-07-31T00:18:14;6.93;;;3.80;;
6177;SDS011;3122;48.208;11.174;2023-07-31T00:23:15;4.07;;;3.60;;
6177;SDS011;3122;48.208;11.174;2023-07-31T00:28:15;4.30;;;3.50;;
6177;SDS011;3122;48.208;11.174;2023-07-31T00:33:16;3.20;;;2.77;;
6177;SDS011;3122;48.208;11.174;2023-07-31T00:38:17;5.97;;;3.20;;
6177;SDS011;3122;48.208;11.174;2023-07-31T00:43:17;3.10;;;2.73;;
6177;SDS011;3122;48.208;11.174;2023-07-31T00:48:18;3.30;;;2.87;;
6177;SDS011;3122;48.208;11.174;2023-07-31T00:53:19;3.20;;;2.60;;
6177;SDS011;3122;48.208;11.174;2023-07-31T00:58:20;5.70;;;3.00;;
6177;SDS011;3122;48.208;11.174;2023-07-31T01:03:20;7.03;;;2.80;;
6177;SDS011;3122;48.208;11.174;2023-07-31T01:08:27;7.50;;;2.87;;
6177;SDS011;3122;48.208;11.174;2023-07-31T01:13:54;3.77;;;2.90;;
6177;SDS011;3122;48.208;11.174;2023-07-31T01:18:55;4.00;;;2.80;;
6177;SDS011;3122;48.208;11.174;2023-07-31T01:24:01;2.93;;;2.70;;
6177;SDS011;3122;48.208;11.174;2023-07-31T01:29:38;3.57;;;2.97;;
6177;SDS011;3122;48.208;11.174;2023-07-31T01:34:49;5.67;;;2.50;;
6177;SDS011;3122;48.208;11.174;2023-07-31T01:39:51;3.03;;;2.70;;
6177;SDS011;3122;48.208;11.174;2023-07-31T01:44:52;3.40;;;3.10;;
6177;SDS011;3122;48.208;11.174;2023-07-31T01:49:52;2.93;;;2.63;;
6177;SDS011;3122;48.208;11.174;2023-07-31T01:54:53;3.57;;;2.73;;
6177;SDS011;3122;48.208;11.174;2023-07-31T01:59:53;4.27;;;2.60;;
6177;SDS011;3122;48.208;11.174;2023-07-31T02:04:54;3.63;;;2.93;;
6177;SDS011;3122;48.208;11.174;2023-07-31T02:09:54;5.30;;;3.00;;
6177;SDS011;3122;48.208;11.174;2023-07-31T02:14:55;4.97;;;2.73;;
6177;SDS011;3122;48.208;11.174;2023-07-31T02:19:55;2.90;;;2.70;;
6177;SDS011;3122;48.208;11.174;2023-07-31T02:24:56;5.00;;;3.10;;
6177;SDS011;3122;48.208;11.174;2023-07-31T02:29:57;3.80;;;2.60;;
6177;SDS011;3122;48.208;11.174;2023-07-31T02:34:59;3.37;;;3.07;;
6177;SDS011;3122;48.208;11.174;2023-07-31T02:39:59;4.40;;;2.70;;
6177;SDS011;3122;48.208;11.174;2023-07-31T02:45:00;3.83;;;2.87;;
6177;SDS011;3122;48.208;11.174;2023-07-31T02:50:01;4.83;;;3.00;;
6177;SDS011;3122;48.208;11.174;2023-07-31T02:55:03;5.17;;;2.70;;
6177;SDS011;3122;48.208;11.174;2023-07-31T03:00:04;3.80;;;3.40;;
6177;SDS011;3122;48.208;11.174;2023-07-31T03:05:06;3.77;;;2.50;;
6177;SDS011;3122;48.208;11.174;2023-07-31T03:10:07;3.10;;;2.90;;
6177;SDS011;3122;48.208;11.174;2023-07-31T03:15:08;3.50;;;3.10;;
6177;SDS011;3122;48.208;11.174;2023-07-31T03:20:09;4.50;;;2.77;;
6177;SDS011;3122;48.208;11.174;2023-07-31T03:25:10;4.50;;;4.03;;
6177;SDS011;3122;48.208;11.174;2023-07-31T03:30:11;4.23;;;3.83;;
6177;SDS011;3122;48.208;11.174;2023-07-31T03:35:11;4.57;;;3.20;;
6177;SDS011;3122;48.208;11.174;2023-07-31T03:40:12;3.80;;;2.80;;
6177;SDS011;3122;48.208;11.174;2023-07-31T03:45:13;5.17;;;3.33;;
6177;SDS011;3122;48.208;11.174;2023-07-31T03:50:13;4.43;;;4.03;;
6177;SDS011;3122;48.208;11.174;2023-07-31T03:55:14;4.23;;;3.83;;
6177;SDS011;3122;48.208;11.174;2023-07-31T04:00:15;3.50;;;3.20;;
6177;SDS011;3122;48.208;11.174;2023-07-31T04:05:15;3.10;;;2.80;;
6177;SDS011;3122;48.208;11.174;2023-07-31T04:10:16;4.90;;;3.10;;
6177;SDS011;3122;48.208;11.174;2023-07-31T04:15:16;8.37;;;5.40;;
6177;SDS011;3122;48.208;11.174;2023-07-31T04:20:17;12.30;;;5.70;;
6177;SDS011;3122;48.208;11.174;2023-07-31T04:25:17;5.10;;;4.10;;
6177;SDS011;3122;48.208;11.174;2023-07-31T04:30:18;5.77;;;2.97;;
6177;SDS011;3122;48.208;11.174;2023-07-31T04:35:19;6.97;;;3.87;;
6177;SDS011;3122;48.208;11.174;2023-07-31T04:40:19;5.43;;;2.97;;
6177;SDS011;3122;48.208;11.174;2023-07-31T04:45:21;4.57;;;2.83;;
6177;SDS011;3122;48.208;11.174;2023-07-31T04:50:21;5.70;;;3.63;;
6177;SDS011;3122;48.208;11.174;2023-07-31T04:55:22;7.90;;;4.20;;
6177;SDS011;3122;48.208;11.174;2023-07-31T05:00:22;6.37;;;3.20;;
6177;SDS011;3122;48.208;11.174;2023-07-31T05:05:23;4.77;;;3.37;;
6177;SDS011;3122;48.208;11.174;2023-07-31T05:10:23;4.97;;;3.43;;
6177;SDS011;3122;48.208;11.174;2023-07-31T05:15:24;6.00;;;3.50;;
6177;SDS011;3122;48.208;11.174;2023-07-31T05:20:24;5.40;;;3.70;;
6177;SDS011;3122;48.208;11.174;2023-07-31T05:25:25;6.27;;;3.40;;
6177;SDS011;3122;48.208;11.174;2023-07-31T05:30:25;4.00;;;3.40;;
6177;SDS011;3122;48.208;11.174;2023-07-31T05:35:26;4.00;;;3.53;;
6177;SDS011;3122;48.208;11.174;2023-07-31T05:40:27;5.27;;;3.23;;
6177;SDS011;3122;48.208;11.174;2023-07-31T05:45:27;4.30;;;3.10;;
6177;SDS011;3122;48.208;11.174;2023-07-31T05:50:28;4.13;;;3.30;;
6177;SDS011;3122;48.208;11.174;2023-07-31T05:55:28;9.50;;;3.10;;
6177;SDS011;3122;48.208;11.174;2023-07-31T06:00:29;4.90;;;3.13;;
6177;SDS011;3122;48.208;11.174;2023-07-31T06:05:29;4.20;;;2.90;;
6177;SDS011;3122;48.208;11.174;2023-07-31T06:10:30;5.23;;;2.77;;
6177;SDS011;3122;48.208;11.174;2023-07-31T06:15:31;3.93;;;3.40;;
6177;SDS011;3122;48.208;11.174;2023-07-31T06:20:31;9.27;;;3.20;;
6177;SDS011;3122;48.208;11.174;2023-07-31T06:25:32;3.60;;;2.80;;
6177;SDS011;3122;48.208;11.174;2023-07-31T06:30:33;4.80;;;2.90;;
6177;SDS011;3122;48.208;11.174;2023-07-31T06:35:33;4.77;;;2.97;;
6177;SDS011;3122;48.208;11.174;2023-07-31T06:40:34;4.03;;;3.20;;
6177;SDS011;3122;48.208;11.174;2023-07-31T06:45:35;3.80;;;2.73;;
6177;SDS011;3122;48.208;11.174;2023-07-31T06:50:36;4.30;;;2.57;;
6177;SDS011;3122;48.208;11.174;2023-07-31T06:55:37;5.43;;;2.70;;
6177;SDS011;3122;48.208;11.174;2023-07-31T07:00:37;3.30;;;3.00;;
6177;SDS011;3122;48.208;11.174;2023-07-31T07:05:38;4.70;;;2.80;;
6177;SDS011;3122;48.208;11.174;2023-07-31T07:10:38;4.57;;;3.50;;
6177;SDS011;3122;48.208;11.174;2023-07-31T07:15:39;4.70;;;2.80;;
6177;SDS011;3122;48.208;11.174;2023-07-31T07:20:39;2.93;;;2.63;;
6177;SDS011;3122;48.208;11.174;2023-07-31T07:25:46;6.23;;;3.43;;
6177;SDS011;3122;48.208;11.174;2023-07-31T07:30:53;3.77;;;2.83;;
6177;SDS011;3122;48.208;11.174;2023-07-31T07:35:53;3.10;;;2.67;;
6177;SDS011;3122;48.208;11.174;2023-07-31T07:40:54;2.87;;;2.57;;
6177;SDS011;3122;48.208;11.174;2023-07-31T07:45:55;5.10;;;2.70;;
6177;SDS011;3122;48.208;11.174;2023-07-31T07:50:55;2.87;;;2.67;;
6177;SDS011;3122;48.208;11.174;2023-07-31T07:55:56;5.07;;;2.53;;
6177;SDS011;3122;48.208;11.174;2023-07-31T08:00:56;3.40;;;2.40;;
6177;SDS011;3122;48.208;11.174;2023-07-31T08:05:57;6.00;;;2.53;;
6177;SDS011;3122;48.208;11.174;2023-07-31T08:10:59;4.97;;;2.17;;
6177;SDS011;3122;48.208;11.174;2023-07-31T08:15:59;4.50;;;2.17;;
6177;SDS011;3122;48.208;11.174;2023-07-31T08:21:01;3.27;;;2.20;;
6177;SDS011;3122;48.208;11.174;2023-07-31T08:26:02;3.20;;;2.80;;
6177;SDS011;3122;48.208;11.174;2023-07-31T08:31:03;2.47;;;2.23;;
6177;SDS011;3122;48.208;11.174;2023-07-31T08:36:03;3.70;;;2.57;;
6177;SDS011;3122;48.208;11.174;2023-07-31T08:41:05;5.90;;;2.40;;
6177;SDS011;3122;48.208;11.174;2023-07-31T08:46:05;4.10;;;2.60;;
6177;SDS011;3122;48.208;11.174;2023-07-31T08:51:06;3.43;;;2.37;;
6177;SDS011;3122;48.208;11.174;2023-07-31T08:56:07;4.27;;;2.50;;
6177;SDS011;3122;48.208;11.174;2023-07-31T09:01:08;5.77;;;2.33;;
6177;SDS011;3122;48.208;11.174;2023-07-31T09:06:09;5.20;;;2.67;;
6177;SDS011;3122;48.208;11.174;2023-07-31T09:11:10;3.13;;;2.30;;
6177;SDS011;3122;48.208;11.174;2023-07-31T09:16:12;2.50;;;2.23;;
6177;SDS011;3122;48.208;11.174;2023-07-31T09:21:13;4.77;;;2.77;;
6177;SDS011;3122;48.208;11.174;2023-07-31T09:31:42;4.53;;;2.97;;
6177;SDS011;3122;48.208;11.174;2023-07-31T09:36:47;2.87;;;2.20;;
6177;SDS011;3122;48.208;11.174;2023-07-31T09:41:54;4.00;;;2.50;;
6177;SDS011;3122;48.208;11.174;2023-07-31T09:46:55;2.70;;;2.50;;
6177;SDS011;3122;48.208;11.174;2023-07-31T09:51:56;4.30;;;2.70;;
6177;SDS011;3122;48.208;11.174;2023-07-31T09:56:56;2.80;;;2.40;;
6177;SDS011;3122;48.208;11.174;2023-07-31T10:01:59;6.20;;;2.70;;
6177;SDS011;3122;48.208;11.174;2023-07-31T10:07:00;4.60;;;2.50;;
6177;SDS011;3122;48.208;11.174;2023-07-31T10:12:03;4.63;;;3.00;;
6177;SDS011;3122;48.208;11.174;2023-07-31T10:17:09;3.20;;;2.90;;
6177;SDS011;3122;48.208;11.174;2023-07-31T10:22:10;5.80;;;3.17;;
6177;SDS011;3122;48.208;11.174;2023-07-31T10:27:12;7.20;;;3.07;;
6177;SDS011;3122;48.208;11.174;2023-07-31T10:32:13;2.90;;;2.70;;
6177;SDS011;3122;48.208;11.174;2023-07-31T10:37:28;5.30;;;2.53;;
6177;SDS011;3122;48.208;11.174;2023-07-31T10:42:30;4.90;;;3.07;;
6177;SDS011;3122;48.208;11.174;2023-07-31T10:47:37;3.93;;;2.30;;
6177;SDS011;3122;48.208;11.174;2023-07-31T10:52:38;4.57;;;2.70;;
6177;SDS011;3122;48.208;11.174;2023-07-31T10:57:39;3.10;;;2.80;;
6177;SDS011;3122;48.208;11.174;2023-07-31T11:02:40;3.73;;;2.93;;
6177;SDS011;3122;48.208;11.174;2023-07-31T11:07:47;5.60;;;3.10;;
6177;SDS011;3122;48.208;11.174;2023-07-31T11:12:51;5.60;;;3.30;;
6177;SDS011;3122;48.208;11.174;2023-07-31T11:17:51;3.90;;;2.87;;
6177;SDS011;3122;48.208;11.174;2023-07-31T11:22:52;5.10;;;2.80;;
6177;SDS011;3122;48.208;11.174;2023-07-31T11:27:52;3.50;;;3.00;;
6177;SDS011;3122;48.208;11.174;2023-07-31T11:32:55;3.57;;;2.77;;
6177;SDS011;3122;48.208;11.174;2023-07-31T11:37:55;5.97;;;3.07;;
6177;SDS011;3122;48.208;11.174;2023-07-31T11:43:03;5.10;;;3.37;;
6177;SDS011;3122;48.208;11.174;2023-07-31T11:48:04;4.33;;;3.00;;
6177;SDS011;3122;48.208;11.174;2023-07-31T11:53:06;4.80;;;3.20;;
6177;SDS011;3122;48.208;11.174;2023-07-31T11:58:09;3.70;;;3.13;;
6177;SDS011;3122;48.208;11.174;2023-07-31T12:03:10;3.23;;;2.80;;
6177;SDS011;3122;48.208;11.174;2023-07-31T12:08:11;4.03;;;3.00;;
6177;SDS011;3122;48.208;11.174;2023-07-31T12:13:12;4.50;;;3.13;;
6177;SDS011;3122;48.208;11.174;2023-07-31T12:18:34;6.30;;;2.60;;
6177;SDS011;3122;48.208;11.174;2023-07-31T12:23:37;4.53;;;2.87;;
6177;SDS011;3122;48.208;11.174;2023-07-31T12:28:41;3.40;;;3.10;;
6177;SDS011;3122;48.208;11.174;2023-07-31T12:33:47;2.93;;;2.73;;
6177;SDS011;3122;48.208;11.174;2023-07-31T12:38:49;3.73;;;2.83;;
6177;SDS011;3122;48.208;11.174;2023-07-31T12:43:51;3.57;;;2.80;;
6177;SDS011;3122;48.208;11.174;2023-07-31T12:48:51;3.27;;;3.00;;
6177;SDS011;3122;48.208;11.174;2023-07-31T12:53:52;3.83;;;2.77;;
6177;SDS011;3122;48.208;11.174;2023-07-31T12:58:53;6.30;;;2.97;;
6177;SDS011;3122;48.208;11.174;2023-07-31T13:03:53;4.60;;;2.90;;
6177;SDS011;3122;48.208;11.174;2023-07-31T13:08:54;4.03;;;2.80;;
6177;SDS011;3122;48.208;11.174;2023-07-31T13:13:54;6.67;;;2.63;;
6177;SDS011;3122;48.208;11.174;2023-07-31T13:18:55;4.70;;;2.70;;
6177;SDS011;3122;48.208;11.174;2023-07-31T13:23:55;3.30;;;2.80;;
6177;SDS011;3122;48.208;11.174;2023-07-31T13:28:58;4.77;;;2.90;;
6177;SDS011;3122;48.208;11.174;2023-07-31T13:33:58;5.80;;;3.30;;
6177;SDS011;3122;48.208;11.174;2023-07-31T13:38:59;4.27;;;2.70;;
6177;SDS011;3122;48.208;11.174;2023-07-31T13:44:00;4.17;;;3.03;;
6177;SDS011;3122;48.208;11.174;2023-07-31T13:49:00;4.53;;;3.10;;
6177;SDS011;3122;48.208;11.174;2023-07-31T13:54:01;3.20;;;2.90;;
6177;SDS011;3122;48.208;11.174;2023-07-31T13:59:02;3.60;;;2.77;;
6177;SDS011;3122;48.208;11.174;2023-07-31T14:04:03;3.83;;;3.17;;
6177;SDS011;3122;48.208;11.174;2023-07-31T14:09:04;4.10;;;3.10;;
6177;SDS011;3122;48.208;11.174;2023-07-31T14:14:05;3.70;;;3.00;;
6177;SDS011;3122;48.208;11.174;2023-07-31T14:19:05;5.43;;;3.03;;
6177;SDS011;3122;48.208;11.174;2023-07-31T14:24:08;3.70;;;2.80;;
6177;SDS011;3122;48.208;11.174;2023-07-31T14:29:08;6.63;;;2.60;;
6177;SDS011;3122;48.208;11.174;2023-07-31T14:34:09;6.63;;;3.00;;
6177;SDS011;3122;48.208;11.174;2023-07-31T14:39:09;5.27;;;2.97;;
6177;SDS011;3122;48.208;11.174;2023-07-31T14:44:10;3.60;;;2.83;;
6177;SDS011;3122;48.208;11.174;2023-07-31T14:49:10;4.23;;;2.93;;
6177;SDS011;3122;48.208;11.174;2023-07-31T14:54:11;4.07;;;2.93;;
6177;SDS011;3122;48.208;11.174;2023-07-31T14:59:11;3.73;;;3.03;;
6177;SDS011;3122;48.208;11.174;2023-07-31T15:04:12;5.70;;;3.33;;
6177;SDS011;3122;48.208;11.174;2023-07-31T15:09:13;3.93;;;3.40;;
6177;SDS011;3122;48.208;11.174;2023-07-31T15:14:13;4.80;;;3.23;;
6177;SDS011;3122;48.208;11.174;2023-07-31T15:19:14;3.80;;;3.33;;
6177;SDS011;3122;48.208;11.174;2023-07-31T15:24:15;3.70;;;3.27;;
6177;SDS011;3122;48.208;11.174;2023-07-31T15:29:15;3.73;;;3.43;;
6177;SDS011;3122;48.208;11.174;2023-07-31T15:34:19;5.70;;;3.30;;
6177;SDS011;3122;48.208;11.174;2023-07-31T15:39:20;6.53;;;3.40;;
6177;SDS011;3122;48.208;11.174;2023-07-31T15:44:20;4.77;;;3.97;;
6177;SDS011;3122;48.208;11.174;2023-07-31T15:49:21;10.13;;;3.70;;
6177;SDS011;3122;48.208;11.174;2023-07-31T15:54:22;5.87;;;3.40;;
6177;SDS011;3122;48.208;11.174;2023-07-31T15:59:22;4.33;;;3.27;;
6177;SDS011;3122;48.208;11.174;2023-07-31T16:04:23;5.27;;;3.23;;
6177;SDS011;3122;48.208;11.174;2023-07-31T16:09:23;4.70;;;3.27;;
6177;SDS011;3122;48.208;11.174;2023-07-31T16:14:24;8.10;;;3.10;;
6177;SDS011;3122;48.208;11.174;2023-07-31T16:19:25;4.93;;;3.60;;
6177;SDS011;3122;48.208;11.174;2023-07-31T16:24:26;7.90;;;3.30;;
6177;SDS011;3122;48.208;11.174;2023-07-31T16:29:28;4.57;;;3.40;;
6177;SDS011;3122;48.208;11.174;2023-07-31T16:34:29;7.40;;;4.30;;
6177;SDS011;3122;48.208;11.174;2023-07-31T16:39:30;4.30;;;3.70;;
6177;SDS011;3122;48.208;11.174;2023-07-31T16:44:36;10.50;;;4.57;;
6177;SDS011;3122;48.208;11.174;2023-07-31T16:49:37;6.97;;;3.43;;
6177;SDS011;3122;48.208;11.174;2023-07-31T16:54:37;6.07;;;3.80;;
6177;SDS011;3122;48.208;11.174;2023-07-31T16:59:38;8.10;;;3.63;;
6177;SDS011;3122;48.208;11.174;2023-07-31T17:04:39;6.63;;;3.43;;
6177;SDS011;3122;48.208;11.174;2023-07-31T17:09:41;5.27;;;3.47;;
6177;SDS011;3122;48.208;11.174;2023-07-31T17:14:43;6.43;;;4.37;;
6177;SDS011;3122;48.208;11.174;2023-07-31T17:19:44;4.23;;;3.50;;
6177;SDS011;3122;48.208;11.174;2023-07-31T17:24:45;3.60;;;3.30;;
6177;SDS011;3122;48.208;11.174;2023-07-31T17:29:47;4.60;;;3.37;;
6177;SDS011;3122;48.208;11.174;2023-07-31T17:34:47;5.23;;;3.90;;
6177;SDS011;3122;48.208;11.174;2023-07-31T17:39:48;5.10;;;3.73;;
6177;SDS011;3122;48.208;11.174;2023-07-31T17:44:49;6.40;;;3.47;;
6177;SDS011;3122;48.208;11.174;2023-07-31T17:49:50;4.13;;;3.60;;
6177;SDS011;3122;48.208;11.174;2023-07-31T17:54:51;3.77;;;3.47;;
6177;SDS011;3122;48.208;11.174;2023-07-31T17:59:54;5.63;;;3.47;;
6177;SDS011;3122;48.208;11.174;2023-07-31T18:04:55;5.13;;;3.50;;
6177;SDS011;3122;48.208;11.174;2023-07-31T18:09:56;3.50;;;3.20;;
6177;SDS011;3122;48.208;11.174;2023-07-31T18:14:57;5.63;;;3.03;;
6177;SDS011;3122;48.208;11.174;2023-07-31T18:19:58;5.90;;;3.50;;
6177;SDS011;3122;48.208;11.174;2023-07-31T18:24:59;5.00;;;3.80;;
6177;SDS011;3122;48.208;11.174;2023-07-31T18:30:00;7.50;;;4.33;;
6177;SDS011;3122;48.208;11.174;2023-07-31T18:35:01;4.27;;;3.70;;
6177;SDS011;3122;48.208;11.174;2023-07-31T18:40:02;4.77;;;3.87;;
6177;SDS011;3122;48.208;11.174;2023-07-31T18:45:05;5.03;;;3.80;;
6177;SDS011;3122;48.208;11.174;2023-07-31T18:50:06;4.53;;;3.20;;
6177;SDS011;3122;48.208;11.174;2023-07-31T18:55:07;7.03;;;3.47;;
6177;SDS011;3122;48.208;11.174;2023-07-31T19:00:09;6.20;;;3.87;;
6177;SDS011;3122;48.208;11.174;2023-07-31T19:05:10;3.40;;;3.07;;
6177;SDS011;3122;48.208;11.174;2023-07-31T19:10:11;3.60;;;3.30;;
6177;SDS011;3122;48.208;11.174;2023-07-31T19:15:12;5.73;;;4.03;;
6177;SDS011;3122;48.208;11.174;2023-07-31T19:20:13;6.43;;;4.27;;
6177;SDS011;3122;48.208;11.174;2023-07-31T19:25:14;6.73;;;3.90;;
6177;SDS011;3122;48.208;11.174;2023-07-31T19:30:15;7.57;;;3.93;;
6177;SDS011;3122;48.208;11.174;2023-07-31T19:35:15;11.90;;;4.17;;
6177;SDS011;3122;48.208;11.174;2023-07-31T19:40:18;10.60;;;4.50;;
6177;SDS011;3122;48.208;11.174;2023-07-31T19:45:21;8.63;;;3.90;;
6177;SDS011;3122;48.208;11.174;2023-07-31T19:50:21;6.37;;;4.30;;
6177;SDS011;3122;48.208;11.174;2023-07-31T19:55:22;7.27;;;4.10;;
6177;SDS011;3122;48.208;11.174;2023-07-31T20:00:23;6.60;;;4.57;;
6177;SDS011;3122;48.208;11.174;2023-07-31T20:05:24;4.30;;;3.43;;
6177;SDS011;3122;48.208;11.174;2023-07-31T20:10:25;6.77;;;3.63;;
6177;SDS011;3122;48.208;11.174;2023-07-31T20:15:26;6.33;;;4.20;;
6177;SDS011;3122;48.208;11.174;2023-07-31T20:20:27;6.63;;;4.77;;
6177;SDS011;3122;48.208;11.174;2023-07-31T20:25:28;7.90;;;4.00;;
6177;SDS011;3122;48.208;11.174;2023-07-31T20:30:32;6.20;;;4.10;;
6177;SDS011;3122;48.208;11.174;2023-07-31T20:35:33;5.63;;;3.90;;
6177;SDS011;3122;48.208;11.174;2023-07-31T20:40:33;4.30;;;3.90;;
6177;SDS011;3122;48.208;11.174;2023-07-31T20:45:34;6.13;;;4.83;;
6177;SDS011;3122;48.208;11.174;2023-07-31T20:50:38;4.17;;;3.77;;
6177;SDS011;3122;48.208;11.174;2023-07-31T20:55:39;5.00;;;4.00;;
6177;SDS011;3122;48.208;11.174;2023-07-31T21:00:40;5.80;;;4.17;;
6177;SDS011;3122;48.208;11.174;2023-07-31T21:05:50;4.17;;;3.77;;
6177;SDS011;3122;48.208;11.174;2023-07-31T21:10:51;4.90;;;4.10;;
6177;SDS011;3122;48.208;11.174;2023-07-31T21:15:59;6.40;;;4.57;;
6177;SDS011;3122;48.208;11.174;2023-07-31T21:21:00;5.10;;;4.27;;
6177;SDS011;3122;48.208;11.174;2023-07-31T21:26:01;6.43;;;4.30;;
6177;SDS011;3122;48.208;11.174;2023-07-31T21:31:08;4.37;;;3.97;;
6177;SDS011;3122;48.208;11.174;2023-07-31T21:36:10;5.50;;;4.50;;
6177;SDS011;3122;48.208;11.174;2023-07-31T21:41:11;7.47;;;4.10;;
6177;SDS011;3122;48.208;11.174;2023-07-31T21:46:12;5.80;;;4.53;;
6177;SDS011;3122;48.208;11.174;2023-07-31T21:51:13;4.27;;;3.87;;
6177;SDS011;3122;48.208;11.174;2023-07-31T21:56:13;5.00;;;3.90;;
6177;SDS011;3122;48.208;11.174;2023-07-31T22:01:14;3.90;;;3.50;;
6177;SDS011;3122;48.208;11.174;2023-07-31T22:06:17;4.60;;;3.83;;
6177;SDS011;3122;48.208;11.174;2023-07-31T22:11:17;4.37;;;3.87;;
6177;SDS011;3122;48.208;11.174;2023-07-31T22:16:20;6.03;;;4.57;;
6177;SDS011;3122;48.208;11.174;2023-07-31T22:21:22;3.60;;;3.10;;
6177;SDS011;3122;48.208;11.174;2023-07-31T22:26:23;6.60;;;3.47;;
6177;SDS011;3122;48.208;11.174;2023-07-31T22:31:25;6.10;;;3.93;;
6177;SDS011;3122;48.208;11.174;2023-07-31T22:36:25;9.23;;;3.77;;
6177;SDS011;3122;48.208;11.174;2023-07-31T22:41:26;4.43;;;3.30;;
6177;SDS011;3122;48.208;11.174;2023-07-31T22:46:26;10.23;;;4.00;;
6177;SDS011;3122;48.208;11.174;2023-07-31T22:51:27;3.33;;;3.03;;
6177;SDS011;3122;48.208;11.174;2023-07-31T22:56:28;4.90;;;3.37;;
6177;SDS011;3122;48.208;11.174;2023-07-31T23:01:28;4.23;;;3.83;;
6177;SDS011;3122;48.208;11.174;2023-07-31T23:06:29;3.30;;;3.03;;
6177;SDS011;3122;48.208;11.174;2023-07-31T23:11:29;6.10;;;3.77;;
6177;SDS011;3122;48.208;11.174;2023-07-31T23:16:30;6.40;;;3.30;;
6177;SDS011;3122;48.208;11.174;2023-07-31T23:21:30;3.40;;;3.00;;
6177;SDS011;3122;48.208;11.174;2023-07-31T23:26:32;7.17;;;4.10;;
6177;SDS011;3122;48.208;11.174;2023-07-31T23:31:33;3.93;;;3.50;;
6177;SDS011;3122;48.208;11.174;2023-07-31T23:36:34;5.30;;;3.73;;
6177;SDS011;3122;48.208;11.174;2023-07-31T23:41:34;4.93;;;3.60;;
6177;SDS011;3122;48.208;11.174;2023-07-31T23:46:35;4.47;;;4.07;;
6177;SDS011;3122;48.208;11.174;2023-07-31T23:51:35;5.10;;;3.00;;
6177;SDS011;3122;48.208;11.174;2023-07-31T23:56:36;4.07;;;3.47;;
